Погода Поусо Алегрена 2 недели

Минас-Жерайс, Бразилия

19 - 31 июля
  • 19июля
    Сегодня
    +9°
    +26°
    Ясно и безоблачно
    ВремяПогодаТемператураВлажностьДавлениеВетер, м/сВероятность осадков
    00:00Ясно и безоблачно+13°C77 %691 мм0.7 м/с5 %
    03:00Ясно и безоблачно+12°C85 %691 мм0.7 м/с5 %
    06:00Практически безоблачно+10°C91 %691 мм0.9 м/с5 %
    09:00Ясно и безоблачно+14°C77 %694 мм0.5 м/с5 %
    12:00Ясно и безоблачно+22°C48 %694 мм1.1 м/с5 %
    15:00Ясно и безоблачно+25°C38 %693 мм0.7 м/с5 %
    18:00Ясно и безоблачно+20°C60 %692 мм1.8 м/с5 %
    21:00Ясно и безоблачно+16°C72 %692 мм1.1 м/с5 %
  • 20июля
    Суббота
    +8°
    +26°
    Ясно и безоблачно
    ВремяПогодаТемператураВлажностьДавлениеВетер, м/сВероятность осадков
    00:00Ясно и безоблачно+13°C82 %692 мм0.9 м/с5 %
    03:00Ясно и безоблачно+12°C87 %691 мм0.7 м/с5 %
    06:00Практически безоблачно+10°C95 %690 мм0.5 м/с5 %
    09:00Ясно и безоблачно+14°C73 %693 мм0.5 м/с5 %
    12:00Ясно и безоблачно+23°C49 %693 мм1.2 м/с5 %
    15:00Ясно и безоблачно+26°C39 %692 мм1.4 м/с5 %
    18:00Ясно и безоблачно+20°C61 %690 мм1.9 м/с5 %
    21:00Ясно и безоблачно+16°C81 %690 мм1.0 м/с5 %
  • 21июля
    Воскресенье
    +9°
    +25°
    Ясно и безоблачно
    ВремяПогодаТемператураВлажностьДавлениеВетер, м/сВероятность осадков
    00:00Ясно и безоблачно+14°C86 %691 мм0.2 м/с5 %
    03:00Ясно и безоблачно+12°C92 %690 мм1.0 м/с5 %
    06:00Ясно и безоблачно+9°C97 %690 мм1.3 м/с5 %
    09:00Ясно и безоблачно+15°C75 %692 мм1.0 м/с5 %
    12:00Ясно и безоблачно+21°C47 %693 мм2.0 м/с5 %
    15:00Ясно и безоблачно+25°C39 %691 мм1.9 м/с5 %
    18:00Ясно и безоблачно+19°C61 %691 мм2.0 м/с5 %
    21:00Ясно и безоблачно+14°C82 %690 мм1.3 м/с5 %
  • 22июля
    Понедельник
    +10°
    +26°
    Ясно и безоблачно
    ВремяПогодаТемператураВлажностьДавлениеВетер, м/сВероятность осадков
    00:00Ясно и безоблачно+12°C84 %691 мм0.7 м/с5 %
    03:00Ясно и безоблачно+12°C88 %690 мм0.3 м/с5 %
    06:00Практически безоблачно+9°C94 %690 мм1.0 м/с5 %
    09:00Ясно и безоблачно+14°C69 %693 мм0.6 м/с5 %
    12:00Ясно и безоблачно+22°C46 %693 мм0.6 м/с5 %
    15:00Ясно и безоблачно+26°C32 %692 мм0.3 м/с5 %
    18:00Ясно и безоблачно+21°C54 %691 мм1.8 м/с5 %
    21:00Ясно и безоблачно+18°C60 %692 мм1.4 м/с5 %
Мы используем cookies
Соглашаюсь